sensor_id;sensor_type;location;lat;lon;timestamp;temperature;humidity
11820;DHT22;5967;48.944;9.240;2022-07-12T00:02:03;17.20;99.90
11820;DHT22;5967;48.944;9.240;2022-07-12T00:04:29;17.20;99.90
11820;DHT22;5967;48.944;9.240;2022-07-12T00:06:58;17.20;99.90
11820;DHT22;5967;48.944;9.240;2022-07-12T00:09:24;17.20;99.90
11820;DHT22;5967;48.944;9.240;2022-07-12T00:11:49;17.20;99.90
11820;DHT22;5967;48.944;9.240;2022-07-12T00:14:15;17.20;99.90
11820;DHT22;5967;48.944;9.240;2022-07-12T00:16:41;17.20;99.90
11820;DHT22;5967;48.944;9.240;2022-07-12T00:19:07;17.20;99.90
11820;DHT22;5967;48.944;9.240;2022-07-12T00:21:34;17.20;99.90
11820;DHT22;5967;48.944;9.240;2022-07-12T00:24:00;17.20;99.90
11820;DHT22;5967;48.944;9.240;2022-07-12T00:26:25;17.20;99.90
11820;DHT22;5967;48.944;9.240;2022-07-12T00:28:51;17.20;99.90
11820;DHT22;5967;48.944;9.240;2022-07-12T00:31:18;17.20;99.90
11820;DHT22;5967;48.944;9.240;2022-07-12T00:33:43;17.20;99.90
11820;DHT22;5967;48.944;9.240;2022-07-12T00:36:10;17.20;99.90
11820;DHT22;5967;48.944;9.240;2022-07-12T00:38:35;17.20;99.90
11820;DHT22;5967;48.944;9.240;2022-07-12T00:41:01;17.20;99.90
11820;DHT22;5967;48.944;9.240;2022-07-12T00:43:27;17.20;99.90
11820;DHT22;5967;48.944;9.240;2022-07-12T00:45:53;17.20;99.90
11820;DHT22;5967;48.944;9.240;2022-07-12T00:48:19;17.20;99.90
11820;DHT22;5967;48.944;9.240;2022-07-12T00:50:46;17.20;99.90
11820;DHT22;5967;48.944;9.240;2022-07-12T00:53:13;17.20;99.90
11820;DHT22;5967;48.944;9.240;2022-07-12T00:55:39;17.20;99.90
11820;DHT22;5967;48.944;9.240;2022-07-12T00:58:04;17.10;99.90
11820;DHT22;5967;48.944;9.240;2022-07-12T01:00:30;17.10;99.90
11820;DHT22;5967;48.944;9.240;2022-07-12T01:02:57;17.10;99.90
11820;DHT22;5967;48.944;9.240;2022-07-12T01:05:23;17.10;99.90
11820;DHT22;5967;48.944;9.240;2022-07-12T01:07:49;17.10;99.90
11820;DHT22;5967;48.944;9.240;2022-07-12T01:10:16;17.10;99.90
11820;DHT22;5967;48.944;9.240;2022-07-12T01:12:42;17.10;99.90
11820;DHT22;5967;48.944;9.240;2022-07-12T01:15:08;17.20;99.90
11820;DHT22;5967;48.944;9.240;2022-07-12T01:17:35;17.20;99.90
11820;DHT22;5967;48.944;9.240;2022-07-12T01:20:01;17.20;99.90
11820;DHT22;5967;48.944;9.240;2022-07-12T01:22:36;17.20;99.90
11820;DHT22;5967;48.944;9.240;2022-07-12T01:25:05;17.20;99.90
11820;DHT22;5967;48.944;9.240;2022-07-12T01:27:31;17.10;99.90
11820;DHT22;5967;48.944;9.240;2022-07-12T01:29:57;17.10;99.90
11820;DHT22;5967;48.944;9.240;2022-07-12T01:32:23;17.10;99.90
11820;DHT22;5967;48.944;9.240;2022-07-12T01:37:31;17.10;99.90
11820;DHT22;5967;48.944;9.240;2022-07-12T01:39:58;17.00;99.90
11820;DHT22;5967;48.944;9.240;2022-07-12T01:42:29;17.00;99.90
11820;DHT22;5967;48.944;9.240;2022-07-12T01:44:55;16.90;99.90
11820;DHT22;5967;48.944;9.240;2022-07-12T01:47:23;16.90;99.90
11820;DHT22;5967;48.944;9.240;2022-07-12T01:49:49;16.80;99.90
11820;DHT22;5967;48.944;9.240;2022-07-12T01:52:15;16.70;99.90
11820;DHT22;5967;48.944;9.240;2022-07-12T01:54:43;16.70;99.90
11820;DHT22;5967;48.944;9.240;2022-07-12T01:57:09;16.60;99.90
11820;DHT22;5967;48.944;9.240;2022-07-12T01:59:35;16.50;99.90
11820;DHT22;5967;48.944;9.240;2022-07-12T02:02:02;16.50;99.90
11820;DHT22;5967;48.944;9.240;2022-07-12T02:04:28;16.40;99.90
11820;DHT22;5967;48.944;9.240;2022-07-12T02:06:54;16.40;99.90
11820;DHT22;5967;48.944;9.240;2022-07-12T02:09:20;16.30;99.90
11820;DHT22;5967;48.944;9.240;2022-07-12T02:11:46;16.30;99.90
11820;DHT22;5967;48.944;9.240;2022-07-12T02:14:13;16.20;99.90
11820;DHT22;5967;48.944;9.240;2022-07-12T02:16:40;16.20;99.90
11820;DHT22;5967;48.944;9.240;2022-07-12T02:19:05;16.20;99.90
11820;DHT22;5967;48.944;9.240;2022-07-12T02:21:31;16.10;99.90
11820;DHT22;5967;48.944;9.240;2022-07-12T02:23:56;16.10;99.90
11820;DHT22;5967;48.944;9.240;2022-07-12T02:26:22;16.00;99.90
11820;DHT22;5967;48.944;9.240;2022-07-12T02:28:48;16.00;99.90
11820;DHT22;5967;48.944;9.240;2022-07-12T02:31:13;16.00;99.90
11820;DHT22;5967;48.944;9.240;2022-07-12T02:33:39;16.00;99.90
11820;DHT22;5967;48.944;9.240;2022-07-12T02:36:05;15.90;99.90
11820;DHT22;5967;48.944;9.240;2022-07-12T02:38:30;15.90;99.90
11820;DHT22;5967;48.944;9.240;2022-07-12T02:40:56;15.80;99.90
11820;DHT22;5967;48.944;9.240;2022-07-12T02:43:26;15.80;99.90
11820;DHT22;5967;48.944;9.240;2022-07-12T02:45:54;15.80;99.90
11820;DHT22;5967;48.944;9.240;2022-07-12T02:48:23;15.70;99.90
11820;DHT22;5967;48.944;9.240;2022-07-12T02:50:49;15.70;99.90
11820;DHT22;5967;48.944;9.240;2022-07-12T02:53:15;15.70;99.90
11820;DHT22;5967;48.944;9.240;2022-07-12T02:55:44;15.60;99.90
11820;DHT22;5967;48.944;9.240;2022-07-12T02:58:10;15.60;99.90
11820;DHT22;5967;48.944;9.240;2022-07-12T03:00:40;15.60;99.90
11820;DHT22;5967;48.944;9.240;2022-07-12T03:03:06;15.60;99.90
11820;DHT22;5967;48.944;9.240;2022-07-12T03:05:35;15.60;99.90
11820;DHT22;5967;48.944;9.240;2022-07-12T03:08:10;15.50;99.90
11820;DHT22;5967;48.944;9.240;2022-07-12T03:10:37;15.50;99.90
11820;DHT22;5967;48.944;9.240;2022-07-12T03:13:03;15.40;99.90
11820;DHT22;5967;48.944;9.240;2022-07-12T03:15:30;15.30;99.90
11820;DHT22;5967;48.944;9.240;2022-07-12T03:18:00;15.30;99.90
11820;DHT22;5967;48.944;9.240;2022-07-12T03:20:28;15.20;99.90
11820;DHT22;5967;48.944;9.240;2022-07-12T03:22:57;15.20;99.90
11820;DHT22;5967;48.944;9.240;2022-07-12T03:25:23;15.20;99.90
11820;DHT22;5967;48.944;9.240;2022-07-12T03:27:49;15.10;99.90
11820;DHT22;5967;48.944;9.240;2022-07-12T03:30:15;15.10;99.90
11820;DHT22;5967;48.944;9.240;2022-07-12T03:32:41;15.10;99.90
11820;DHT22;5967;48.944;9.240;2022-07-12T03:35:07;15.10;99.90
11820;DHT22;5967;48.944;9.240;2022-07-12T03:37:47;15.10;99.90
11820;DHT22;5967;48.944;9.240;2022-07-12T03:40:14;15.10;99.90
11820;DHT22;5967;48.944;9.240;2022-07-12T03:42:41;15.10;99.90
11820;DHT22;5967;48.944;9.240;2022-07-12T03:45:10;15.10;99.90
11820;DHT22;5967;48.944;9.240;2022-07-12T03:47:36;15.00;99.90
11820;DHT22;5967;48.944;9.240;2022-07-12T03:50:10;15.10;99.90
11820;DHT22;5967;48.944;9.240;2022-07-12T03:52:38;15.10;99.90
11820;DHT22;5967;48.944;9.240;2022-07-12T03:55:07;15.10;99.90
11820;DHT22;5967;48.944;9.240;2022-07-12T03:57:36;15.20;99.90
11820;DHT22;5967;48.944;9.240;2022-07-12T04:00:07;15.20;99.90
11820;DHT22;5967;48.944;9.240;2022-07-12T04:02:38;15.20;99.90
11820;DHT22;5967;48.944;9.240;2022-07-12T04:05:05;15.20;99.90
11820;DHT22;5967;48.944;9.240;2022-07-12T04:07:31;15.10;99.90
11820;DHT22;5967;48.944;9.240;2022-07-12T04:09:57;15.10;99.90
11820;DHT22;5967;48.944;9.240;2022-07-12T04:12:23;15.10;99.90
11820;DHT22;5967;48.944;9.240;2022-07-12T04:14:51;15.20;99.90
11820;DHT22;5967;48.944;9.240;2022-07-12T04:17:17;15.20;99.90
11820;DHT22;5967;48.944;9.240;2022-07-12T04:19:43;15.30;99.90
11820;DHT22;5967;48.944;9.240;2022-07-12T04:22:08;15.30;99.90
11820;DHT22;5967;48.944;9.240;2022-07-12T04:24:34;15.30;99.90
11820;DHT22;5967;48.944;9.240;2022-07-12T04:26:59;15.30;99.90
11820;DHT22;5967;48.944;9.240;2022-07-12T04:29:25;15.30;99.90
11820;DHT22;5967;48.944;9.240;2022-07-12T04:31:51;15.30;99.90
11820;DHT22;5967;48.944;9.240;2022-07-12T04:34:16;15.30;99.90
11820;DHT22;5967;48.944;9.240;2022-07-12T04:36:46;15.40;99.90
11820;DHT22;5967;48.944;9.240;2022-07-12T04:39:13;15.50;99.90
11820;DHT22;5967;48.944;9.240;2022-07-12T04:41:42;15.50;99.90
11820;DHT22;5967;48.944;9.240;2022-07-12T04:44:08;15.60;99.90
11820;DHT22;5967;48.944;9.240;2022-07-12T04:46:34;15.60;99.90
11820;DHT22;5967;48.944;9.240;2022-07-12T04:49:00;15.60;99.90
11820;DHT22;5967;48.944;9.240;2022-07-12T04:51:25;15.60;99.90
11820;DHT22;5967;48.944;9.240;2022-07-12T04:53:52;15.50;99.90
11820;DHT22;5967;48.944;9.240;2022-07-12T04:56:18;15.50;99.90
11820;DHT22;5967;48.944;9.240;2022-07-12T04:58:43;15.50;99.90
11820;DHT22;5967;48.944;9.240;2022-07-12T05:01:09;15.60;99.90
11820;DHT22;5967;48.944;9.240;2022-07-12T05:03:35;15.70;99.90
11820;DHT22;5967;48.944;9.240;2022-07-12T05:06:00;15.80;99.90
11820;DHT22;5967;48.944;9.240;2022-07-12T05:08:26;15.80;99.90
11820;DHT22;5967;48.944;9.240;2022-07-12T05:10:52;15.80;99.90
11820;DHT22;5967;48.944;9.240;2022-07-12T05:13:17;15.90;99.90
11820;DHT22;5967;48.944;9.240;2022-07-12T05:15:43;15.90;99.90
11820;DHT22;5967;48.944;9.240;2022-07-12T05:18:09;16.00;99.90
11820;DHT22;5967;48.944;9.240;2022-07-12T05:20:34;16.00;99.90
11820;DHT22;5967;48.944;9.240;2022-07-12T05:23:02;16.00;99.90
11820;DHT22;5967;48.944;9.240;2022-07-12T05:25:30;16.00;99.90
11820;DHT22;5967;48.944;9.240;2022-07-12T05:27:56;16.00;99.90
11820;DHT22;5967;48.944;9.240;2022-07-12T05:30:22;16.10;99.90
11820;DHT22;5967;48.944;9.240;2022-07-12T05:32:48;16.40;99.90
11820;DHT22;5967;48.944;9.240;2022-07-12T05:35:14;17.10;99.90
11820;DHT22;5967;48.944;9.240;2022-07-12T05:37:40;17.90;99.90
11820;DHT22;5967;48.944;9.240;2022-07-12T05:40:06;18.60;99.90
11820;DHT22;5967;48.944;9.240;2022-07-12T05:42:35;19.00;99.90
11820;DHT22;5967;48.944;9.240;2022-07-12T05:45:05;18.90;99.90
11820;DHT22;5967;48.944;9.240;2022-07-12T05:47:30;18.90;99.90
11820;DHT22;5967;48.944;9.240;2022-07-12T05:49:56;18.90;99.90
11820;DHT22;5967;48.944;9.240;2022-07-12T05:52:27;18.70;99.90
11820;DHT22;5967;48.944;9.240;2022-07-12T05:55:11;18.60;99.90
11820;DHT22;5967;48.944;9.240;2022-07-12T05:57:37;18.50;99.90
11820;DHT22;5967;48.944;9.240;2022-07-12T06:00:04;18.40;99.90
11820;DHT22;5967;48.944;9.240;2022-07-12T06:02:30;18.30;99.90
11820;DHT22;5967;48.944;9.240;2022-07-12T06:04:55;18.20;99.90
11820;DHT22;5967;48.944;9.240;2022-07-12T06:07:24;18.30;99.90
11820;DHT22;5967;48.944;9.240;2022-07-12T06:09:49;18.50;99.90
11820;DHT22;5967;48.944;9.240;2022-07-12T06:12:18;18.60;99.90
11820;DHT22;5967;48.944;9.240;2022-07-12T06:14:43;18.60;99.90
11820;DHT22;5967;48.944;9.240;2022-07-12T06:17:11;18.60;99.90
11820;DHT22;5967;48.944;9.240;2022-07-12T06:19:37;18.50;99.90
11820;DHT22;5967;48.944;9.240;2022-07-12T06:22:03;18.50;99.90
11820;DHT22;5967;48.944;9.240;2022-07-12T06:24:28;18.50;99.90
11820;DHT22;5967;48.944;9.240;2022-07-12T06:26:54;18.40;99.90
11820;DHT22;5967;48.944;9.240;2022-07-12T06:29:20;18.40;99.90
11820;DHT22;5967;48.944;9.240;2022-07-12T06:31:45;18.50;99.90
11820;DHT22;5967;48.944;9.240;2022-07-12T06:34:14;18.60;99.90
11820;DHT22;5967;48.944;9.240;2022-07-12T06:36:39;18.60;99.90
11820;DHT22;5967;48.944;9.240;2022-07-12T06:39:09;18.60;99.90
11820;DHT22;5967;48.944;9.240;2022-07-12T06:41:37;18.60;99.90
11820;DHT22;5967;48.944;9.240;2022-07-12T06:44:03;18.70;99.90
11820;DHT22;5967;48.944;9.240;2022-07-12T06:46:28;18.70;99.90
11820;DHT22;5967;48.944;9.240;2022-07-12T06:48:54;18.80;99.90
11820;DHT22;5967;48.944;9.240;2022-07-12T06:51:19;18.90;99.90
11820;DHT22;5967;48.944;9.240;2022-07-12T06:53:48;18.90;99.90
11820;DHT22;5967;48.944;9.240;2022-07-12T06:56:14;19.00;99.90
11820;DHT22;5967;48.944;9.240;2022-07-12T06:58:40;19.00;99.90
11820;DHT22;5967;48.944;9.240;2022-07-12T07:01:06;19.10;99.90
11820;DHT22;5967;48.944;9.240;2022-07-12T07:03:34;19.10;99.90
11820;DHT22;5967;48.944;9.240;2022-07-12T07:06:05;19.20;99.90
11820;DHT22;5967;48.944;9.240;2022-07-12T07:08:31;19.20;99.90
11820;DHT22;5967;48.944;9.240;2022-07-12T07:10:57;19.20;99.90
11820;DHT22;5967;48.944;9.240;2022-07-12T07:13:23;19.20;99.90
11820;DHT22;5967;48.944;9.240;2022-07-12T07:15:49;19.20;99.90
11820;DHT22;5967;48.944;9.240;2022-07-12T07:18:15;19.30;99.90
11820;DHT22;5967;48.944;9.240;2022-07-12T07:20:40;19.30;99.90
11820;DHT22;5967;48.944;9.240;2022-07-12T07:23:06;19.40;99.90
11820;DHT22;5967;48.944;9.240;2022-07-12T07:25:32;19.40;99.90
11820;DHT22;5967;48.944;9.240;2022-07-12T07:27:58;19.60;99.90
11820;DHT22;5967;48.944;9.240;2022-07-12T07:30:23;19.70;99.90
11820;DHT22;5967;48.944;9.240;2022-07-12T07:33:07;19.80;99.90
11820;DHT22;5967;48.944;9.240;2022-07-12T07:35:33;19.90;99.90
11820;DHT22;5967;48.944;9.240;2022-07-12T07:37:58;20.00;99.90
11820;DHT22;5967;48.944;9.240;2022-07-12T07:40:24;20.10;99.90
11820;DHT22;5967;48.944;9.240;2022-07-12T07:42:50;20.20;99.90
11820;DHT22;5967;48.944;9.240;2022-07-12T07:45:15;20.20;99.90
11820;DHT22;5967;48.944;9.240;2022-07-12T07:47:48;20.30;99.90
11820;DHT22;5967;48.944;9.240;2022-07-12T07:50:15;20.30;99.90
11820;DHT22;5967;48.944;9.240;2022-07-12T07:52:41;20.30;99.90
11820;DHT22;5967;48.944;9.240;2022-07-12T07:55:07;20.40;99.90
11820;DHT22;5967;48.944;9.240;2022-07-12T07:57:33;20.50;99.90
11820;DHT22;5967;48.944;9.240;2022-07-12T07:59:58;20.60;99.90
11820;DHT22;5967;48.944;9.240;2022-07-12T08:02:24;20.70;99.90
11820;DHT22;5967;48.944;9.240;2022-07-12T08:04:50;20.80;99.90
11820;DHT22;5967;48.944;9.240;2022-07-12T08:07:17;20.90;99.90
11820;DHT22;5967;48.944;9.240;2022-07-12T08:09:42;21.20;99.90
11820;DHT22;5967;48.944;9.240;2022-07-12T08:12:08;21.10;99.90
11820;DHT22;5967;48.944;9.240;2022-07-12T08:14:34;21.20;99.90
11820;DHT22;5967;48.944;9.240;2022-07-12T08:16:59;21.30;99.90
11820;DHT22;5967;48.944;9.240;2022-07-12T08:19:25;21.40;99.90
11820;DHT22;5967;48.944;9.240;2022-07-12T08:21:51;21.50;99.90
11820;DHT22;5967;48.944;9.240;2022-07-12T08:24:16;21.60;99.90
11820;DHT22;5967;48.944;9.240;2022-07-12T08:26:42;21.70;99.90
11820;DHT22;5967;48.944;9.240;2022-07-12T08:29:07;21.80;99.90
11820;DHT22;5967;48.944;9.240;2022-07-12T08:31:33;21.80;99.90
11820;DHT22;5967;48.944;9.240;2022-07-12T08:33:59;21.80;99.90
11820;DHT22;5967;48.944;9.240;2022-07-12T08:36:24;21.90;99.90
11820;DHT22;5967;48.944;9.240;2022-07-12T08:38:50;22.00;99.90
11820;DHT22;5967;48.944;9.240;2022-07-12T08:41:16;22.10;99.90
11820;DHT22;5967;48.944;9.240;2022-07-12T08:43:42;22.10;99.90
11820;DHT22;5967;48.944;9.240;2022-07-12T08:46:13;22.10;99.90
11820;DHT22;5967;48.944;9.240;2022-07-12T08:48:40;22.30;99.90
11820;DHT22;5967;48.944;9.240;2022-07-12T08:51:11;22.30;99.90
11820;DHT22;5967;48.944;9.240;2022-07-12T08:53:38;22.50;99.90
11820;DHT22;5967;48.944;9.240;2022-07-12T08:56:04;22.60;99.90
11820;DHT22;5967;48.944;9.240;2022-07-12T08:58:30;22.60;99.90
11820;DHT22;5967;48.944;9.240;2022-07-12T09:00:57;22.70;99.90
11820;DHT22;5967;48.944;9.240;2022-07-12T09:03:23;22.60;99.90
11820;DHT22;5967;48.944;9.240;2022-07-12T09:05:53;22.70;99.90
11820;DHT22;5967;48.944;9.240;2022-07-12T09:08:30;22.90;99.90
11820;DHT22;5967;48.944;9.240;2022-07-12T09:11:03;22.90;99.90
11820;DHT22;5967;48.944;9.240;2022-07-12T09:16:14;22.80;99.90
11820;DHT22;5967;48.944;9.240;2022-07-12T09:18:40;22.70;99.90
11820;DHT22;5967;48.944;9.240;2022-07-12T09:21:05;22.70;99.90
11820;DHT22;5967;48.944;9.240;2022-07-12T09:23:31;22.70;99.90
11820;DHT22;5967;48.944;9.240;2022-07-12T09:25:57;22.70;99.90
11820;DHT22;5967;48.944;9.240;2022-07-12T09:28:22;22.60;99.90
11820;DHT22;5967;48.944;9.240;2022-07-12T09:30:50;22.70;99.90
11820;DHT22;5967;48.944;9.240;2022-07-12T09:33:20;22.70;99.90
11820;DHT22;5967;48.944;9.240;2022-07-12T09:36:06;22.70;99.90
11820;DHT22;5967;48.944;9.240;2022-07-12T09:38:33;22.80;99.90
11820;DHT22;5967;48.944;9.240;2022-07-12T09:41:00;22.60;99.90
11820;DHT22;5967;48.944;9.240;2022-07-12T09:43:26;22.60;99.90
11820;DHT22;5967;48.944;9.240;2022-07-12T09:45:55;22.60;99.90
11820;DHT22;5967;48.944;9.240;2022-07-12T09:48:21;22.70;99.90
11820;DHT22;5967;48.944;9.240;2022-07-12T09:50:49;22.70;99.90
11820;DHT22;5967;48.944;9.240;2022-07-12T09:53:39;22.70;99.90
11820;DHT22;5967;48.944;9.240;2022-07-12T09:56:10;22.80;99.90
11820;DHT22;5967;48.944;9.240;2022-07-12T09:58:51;22.80;99.90
11820;DHT22;5967;48.944;9.240;2022-07-12T10:01:17;22.80;99.90
11820;DHT22;5967;48.944;9.240;2022-07-12T10:03:43;22.80;99.90
11820;DHT22;5967;48.944;9.240;2022-07-12T10:06:11;22.90;99.90
11820;DHT22;5967;48.944;9.240;2022-07-12T10:08:38;23.10;99.90
11820;DHT22;5967;48.944;9.240;2022-07-12T10:11:04;23.20;99.90
11820;DHT22;5967;48.944;9.240;2022-07-12T10:13:31;23.20;99.90
11820;DHT22;5967;48.944;9.240;2022-07-12T10:16:00;23.10;99.90
11820;DHT22;5967;48.944;9.240;2022-07-12T10:18:26;22.90;99.90
11820;DHT22;5967;48.944;9.240;2022-07-12T10:20:52;22.80;99.90
11820;DHT22;5967;48.944;9.240;2022-07-12T10:23:27;22.70;99.90
11820;DHT22;5967;48.944;9.240;2022-07-12T10:25:55;22.80;99.90
11820;DHT22;5967;48.944;9.240;2022-07-12T10:29:00;23.00;99.90
11820;DHT22;5967;48.944;9.240;2022-07-12T10:31:34;23.30;99.90
11820;DHT22;5967;48.944;9.240;2022-07-12T10:37:06;23.60;99.90
11820;DHT22;5967;48.944;9.240;2022-07-12T10:39:32;23.80;99.90
11820;DHT22;5967;48.944;9.240;2022-07-12T10:42:13;23.90;99.90
11820;DHT22;5967;48.944;9.240;2022-07-12T10:45:11;23.90;99.90
11820;DHT22;5967;48.944;9.240;2022-07-12T10:47:57;24.00;99.90
11820;DHT22;5967;48.944;9.240;2022-07-12T10:50:52;24.10;99.90
11820;DHT22;5967;48.944;9.240;2022-07-12T10:53:30;24.30;99.90
11820;DHT22;5967;48.944;9.240;2022-07-12T10:59:16;24.20;99.90
11820;DHT22;5967;48.944;9.240;2022-07-12T11:01:46;24.10;99.90
11820;DHT22;5967;48.944;9.240;2022-07-12T11:04:13;24.10;99.90
11820;DHT22;5967;48.944;9.240;2022-07-12T11:06:42;24.20;99.90
11820;DHT22;5967;48.944;9.240;2022-07-12T11:09:12;24.30;99.90
11820;DHT22;5967;48.944;9.240;2022-07-12T11:11:45;24.40;99.90
11820;DHT22;5967;48.944;9.240;2022-07-12T11:14:24;24.50;99.90
11820;DHT22;5967;48.944;9.240;2022-07-12T11:16:51;24.60;99.90
11820;DHT22;5967;48.944;9.240;2022-07-12T11:19:28;24.70;99.90
11820;DHT22;5967;48.944;9.240;2022-07-12T11:21:57;24.70;99.90
11820;DHT22;5967;48.944;9.240;2022-07-12T11:24:41;24.70;99.90
11820;DHT22;5967;48.944;9.240;2022-07-12T11:27:13;24.70;99.90
11820;DHT22;5967;48.944;9.240;2022-07-12T11:29:39;24.70;99.90
11820;DHT22;5967;48.944;9.240;2022-07-12T11:32:05;24.80;99.90
11820;DHT22;5967;48.944;9.240;2022-07-12T11:34:33;25.00;99.90
11820;DHT22;5967;48.944;9.240;2022-07-12T11:37:06;25.10;99.90
11820;DHT22;5967;48.944;9.240;2022-07-12T11:39:39;25.10;99.90
11820;DHT22;5967;48.944;9.240;2022-07-12T11:42:06;25.00;99.90
11820;DHT22;5967;48.944;9.240;2022-07-12T11:44:52;24.90;99.90
11820;DHT22;5967;48.944;9.240;2022-07-12T11:47:20;24.90;99.90
11820;DHT22;5967;48.944;9.240;2022-07-12T11:49:51;25.00;99.90
11820;DHT22;5967;48.944;9.240;2022-07-12T11:52:19;25.00;99.90
11820;DHT22;5967;48.944;9.240;2022-07-12T11:54:46;25.10;99.90
11820;DHT22;5967;48.944;9.240;2022-07-12T11:57:12;25.10;99.90
11820;DHT22;5967;48.944;9.240;2022-07-12T11:59:39;25.10;99.90
11820;DHT22;5967;48.944;9.240;2022-07-12T12:02:12;25.10;99.90
11820;DHT22;5967;48.944;9.240;2022-07-12T12:04:49;25.00;99.90
11820;DHT22;5967;48.944;9.240;2022-07-12T12:07:16;25.00;99.90
11820;DHT22;5967;48.944;9.240;2022-07-12T12:09:58;25.10;99.90
11820;DHT22;5967;48.944;9.240;2022-07-12T12:12:25;25.10;99.90
11820;DHT22;5967;48.944;9.240;2022-07-12T12:14:50;25.00;99.90
11820;DHT22;5967;48.944;9.240;2022-07-12T12:17:16;25.00;99.90
11820;DHT22;5967;48.944;9.240;2022-07-12T12:19:43;25.00;99.90
11820;DHT22;5967;48.944;9.240;2022-07-12T12:22:34;25.00;99.90
11820;DHT22;5967;48.944;9.240;2022-07-12T12:25:00;25.10;99.90
11820;DHT22;5967;48.944;9.240;2022-07-12T12:27:29;25.10;99.90
11820;DHT22;5967;48.944;9.240;2022-07-12T12:30:05;25.10;99.90
11820;DHT22;5967;48.944;9.240;2022-07-12T12:35:11;25.30;99.90
11820;DHT22;5967;48.944;9.240;2022-07-12T12:37:37;25.50;99.90
11820;DHT22;5967;48.944;9.240;2022-07-12T12:40:03;25.40;99.90
11820;DHT22;5967;48.944;9.240;2022-07-12T12:42:31;25.50;99.90
11820;DHT22;5967;48.944;9.240;2022-07-12T12:44:56;25.50;99.90
11820;DHT22;5967;48.944;9.240;2022-07-12T12:47:22;25.50;99.90
11820;DHT22;5967;48.944;9.240;2022-07-12T12:49:57;25.60;99.90
11820;DHT22;5967;48.944;9.240;2022-07-12T12:52:27;25.70;99.90
11820;DHT22;5967;48.944;9.240;2022-07-12T12:54:55;25.60;99.90
11820;DHT22;5967;48.944;9.240;2022-07-12T12:57:21;25.50;99.90
11820;DHT22;5967;48.944;9.240;2022-07-12T12:59:47;25.60;99.90
11820;DHT22;5967;48.944;9.240;2022-07-12T13:02:13;25.60;99.90
11820;DHT22;5967;48.944;9.240;2022-07-12T13:04:38;25.70;99.90
11820;DHT22;5967;48.944;9.240;2022-07-12T13:07:05;25.80;99.90
11820;DHT22;5967;48.944;9.240;2022-07-12T13:09:32;25.80;99.90
11820;DHT22;5967;48.944;9.240;2022-07-12T13:11:58;25.80;99.90
11820;DHT22;5967;48.944;9.240;2022-07-12T13:14:25;25.80;99.90
11820;DHT22;5967;48.944;9.240;2022-07-12T13:16:50;25.80;99.90
11820;DHT22;5967;48.944;9.240;2022-07-12T13:19:16;25.80;99.90
11820;DHT22;5967;48.944;9.240;2022-07-12T13:21:42;25.80;99.90
11820;DHT22;5967;48.944;9.240;2022-07-12T13:24:08;25.90;99.90
11820;DHT22;5967;48.944;9.240;2022-07-12T13:26:34;25.90;99.90
11820;DHT22;5967;48.944;9.240;2022-07-12T13:28:59;25.90;99.90
11820;DHT22;5967;48.944;9.240;2022-07-12T13:31:25;25.90;99.90
11820;DHT22;5967;48.944;9.240;2022-07-12T13:33:53;25.90;99.90
11820;DHT22;5967;48.944;9.240;2022-07-12T13:36:19;25.90;99.90
11820;DHT22;5967;48.944;9.240;2022-07-12T13:38:46;25.90;99.90
11820;DHT22;5967;48.944;9.240;2022-07-12T13:41:12;25.90;99.90
11820;DHT22;5967;48.944;9.240;2022-07-12T13:43:37;25.90;99.90
11820;DHT22;5967;48.944;9.240;2022-07-12T13:46:03;26.00;99.90
11820;DHT22;5967;48.944;9.240;2022-07-12T13:48:30;26.00;99.90
11820;DHT22;5967;48.944;9.240;2022-07-12T13:50:55;26.10;99.90
11820;DHT22;5967;48.944;9.240;2022-07-12T13:53:21;26.10;99.90
11820;DHT22;5967;48.944;9.240;2022-07-12T13:55:47;26.10;99.90
11820;DHT22;5967;48.944;9.240;2022-07-12T13:58:12;26.20;99.90
11820;DHT22;5967;48.944;9.240;2022-07-12T14:00:41;26.20;99.90
11820;DHT22;5967;48.944;9.240;2022-07-12T14:03:07;26.20;99.90
11820;DHT22;5967;48.944;9.240;2022-07-12T14:05:33;26.20;99.90
11820;DHT22;5967;48.944;9.240;2022-07-12T14:07:59;26.20;99.90
11820;DHT22;5967;48.944;9.240;2022-07-12T14:10:27;26.20;99.90
11820;DHT22;5967;48.944;9.240;2022-07-12T14:12:53;26.20;99.90
11820;DHT22;5967;48.944;9.240;2022-07-12T14:15:18;26.20;99.90
11820;DHT22;5967;48.944;9.240;2022-07-12T14:18:04;26.20;99.90
11820;DHT22;5967;48.944;9.240;2022-07-12T14:20:31;26.30;99.90
11820;DHT22;5967;48.944;9.240;2022-07-12T14:23:00;26.30;99.90
11820;DHT22;5967;48.944;9.240;2022-07-12T14:25:26;26.30;99.90
11820;DHT22;5967;48.944;9.240;2022-07-12T14:27:52;26.30;99.90
11820;DHT22;5967;48.944;9.240;2022-07-12T14:30:20;26.30;99.90
11820;DHT22;5967;48.944;9.240;2022-07-12T14:32:46;26.40;99.90
11820;DHT22;5967;48.944;9.240;2022-07-12T14:35:12;26.50;99.90
11820;DHT22;5967;48.944;9.240;2022-07-12T14:37:38;26.50;99.90
11820;DHT22;5967;48.944;9.240;2022-07-12T14:40:05;26.60;99.90
11820;DHT22;5967;48.944;9.240;2022-07-12T14:42:31;26.60;99.90
11820;DHT22;5967;48.944;9.240;2022-07-12T14:44:57;26.60;99.90
11820;DHT22;5967;48.944;9.240;2022-07-12T14:47:22;26.60;99.90
11820;DHT22;5967;48.944;9.240;2022-07-12T14:49:49;26.60;99.90
11820;DHT22;5967;48.944;9.240;2022-07-12T14:52:17;26.50;99.90
11820;DHT22;5967;48.944;9.240;2022-07-12T14:54:44;26.60;99.90
11820;DHT22;5967;48.944;9.240;2022-07-12T14:57:10;26.50;99.90
11820;DHT22;5967;48.944;9.240;2022-07-12T14:59:36;26.50;99.90
11820;DHT22;5967;48.944;9.240;2022-07-12T15:02:02;26.50;99.90
11820;DHT22;5967;48.944;9.240;2022-07-12T15:04:28;26.50;99.90
11820;DHT22;5967;48.944;9.240;2022-07-12T15:06:54;26.60;99.90
11820;DHT22;5967;48.944;9.240;2022-07-12T15:09:19;26.60;99.90
11820;DHT22;5967;48.944;9.240;2022-07-12T15:11:45;26.60;99.90
11820;DHT22;5967;48.944;9.240;2022-07-12T15:14:11;26.60;99.90
11820;DHT22;5967;48.944;9.240;2022-07-12T15:16:39;26.60;99.90
11820;DHT22;5967;48.944;9.240;2022-07-12T15:19:05;26.50;99.90
11820;DHT22;5967;48.944;9.240;2022-07-12T15:21:31;26.60;99.90
11820;DHT22;5967;48.944;9.240;2022-07-12T15:23:56;26.60;99.90
11820;DHT22;5967;48.944;9.240;2022-07-12T15:26:22;26.60;99.90
11820;DHT22;5967;48.944;9.240;2022-07-12T15:28:54;26.60;99.90
11820;DHT22;5967;48.944;9.240;2022-07-12T15:31:20;26.60;99.90
11820;DHT22;5967;48.944;9.240;2022-07-12T15:33:46;26.60;99.90
11820;DHT22;5967;48.944;9.240;2022-07-12T15:36:13;26.60;99.90
11820;DHT22;5967;48.944;9.240;2022-07-12T15:38:42;26.60;99.90
11820;DHT22;5967;48.944;9.240;2022-07-12T15:41:12;26.60;99.90
11820;DHT22;5967;48.944;9.240;2022-07-12T15:43:39;26.70;99.90
11820;DHT22;5967;48.944;9.240;2022-07-12T15:46:06;26.70;99.90
11820;DHT22;5967;48.944;9.240;2022-07-12T15:48:41;26.80;99.90
11820;DHT22;5967;48.944;9.240;2022-07-12T15:51:07;26.80;99.90
11820;DHT22;5967;48.944;9.240;2022-07-12T15:53:35;26.80;99.90
11820;DHT22;5967;48.944;9.240;2022-07-12T15:56:03;26.90;99.90
11820;DHT22;5967;48.944;9.240;2022-07-12T15:58:38;26.90;99.90
11820;DHT22;5967;48.944;9.240;2022-07-12T16:01:04;26.80;99.90
11820;DHT22;5967;48.944;9.240;2022-07-12T16:03:34;26.80;99.90